sensor_id;sensor_type;location;lat;lon;timestamp;P1;durP1;ratioP1;P2;durP2;ratioP2
45296;SDS011;31040;51.622;10.420;2023-04-25T00:00:24;6.85;;;3.33;;
45296;SDS011;31040;51.622;10.420;2023-04-25T00:02:52;10.25;;;4.55;;
45296;SDS011;31040;51.622;10.420;2023-04-25T00:05:19;6.85;;;3.25;;
45296;SDS011;31040;51.622;10.420;2023-04-25T00:07:49;6.18;;;4.07;;
45296;SDS011;31040;51.622;10.420;2023-04-25T00:10:17;5.10;;;3.38;;
45296;SDS011;31040;51.622;10.420;2023-04-25T00:12:44;5.82;;;3.67;;
45296;SDS011;31040;51.622;10.420;2023-04-25T00:15:11;5.57;;;3.92;;
45296;SDS011;31040;51.622;10.420;2023-04-25T00:17:39;7.75;;;3.55;;
45296;SDS011;31040;51.622;10.420;2023-04-25T00:20:07;6.50;;;3.20;;
45296;SDS011;31040;51.622;10.420;2023-04-25T00:22:36;7.13;;;3.03;;
45296;SDS011;31040;51.622;10.420;2023-04-25T00:25:06;7.38;;;3.65;;
45296;SDS011;31040;51.622;10.420;2023-04-25T00:27:34;7.88;;;3.95;;
45296;SDS011;31040;51.622;10.420;2023-04-25T00:30:01;9.18;;;3.80;;
45296;SDS011;31040;51.622;10.420;2023-04-25T00:32:29;8.25;;;3.33;;
45296;SDS011;31040;51.622;10.420;2023-04-25T00:34:56;8.98;;;4.60;;
45296;SDS011;31040;51.622;10.420;2023-04-25T00:37:24;7.82;;;3.80;;
45296;SDS011;31040;51.622;10.420;2023-04-25T00:39:51;5.57;;;2.97;;
45296;SDS011;31040;51.622;10.420;2023-04-25T00:42:21;8.43;;;3.67;;
45296;SDS011;31040;51.622;10.420;2023-04-25T00:44:48;7.35;;;3.72;;
45296;SDS011;31040;51.622;10.420;2023-04-25T00:47:15;7.95;;;3.83;;
45296;SDS011;31040;51.622;10.420;2023-04-25T00:49:43;6.80;;;3.42;;
45296;SDS011;31040;51.622;10.420;2023-04-25T00:52:10;6.22;;;3.42;;
45296;SDS011;31040;51.622;10.420;2023-04-25T00:54:38;7.68;;;3.85;;
45296;SDS011;31040;51.622;10.420;2023-04-25T00:57:05;5.28;;;3.40;;
45296;SDS011;31040;51.622;10.420;2023-04-25T00:59:33;6.35;;;3.38;;
45296;SDS011;31040;51.622;10.420;2023-04-25T01:02:00;10.38;;;4.15;;
45296;SDS011;31040;51.622;10.420;2023-04-25T01:04:28;5.78;;;3.10;;
45296;SDS011;31040;51.622;10.420;2023-04-25T01:06:55;6.15;;;3.42;;
45296;SDS011;31040;51.622;10.420;2023-04-25T01:09:23;6.03;;;3.90;;
45296;SDS011;31040;51.622;10.420;2023-04-25T01:11:51;7.95;;;3.78;;
45296;SDS011;31040;51.622;10.420;2023-04-25T01:14:18;6.30;;;3.60;;
45296;SDS011;31040;51.622;10.420;2023-04-25T01:16:46;9.20;;;4.32;;
45296;SDS011;31040;51.622;10.420;2023-04-25T01:19:13;5.40;;;3.83;;
45296;SDS011;31040;51.622;10.420;2023-04-25T01:21:43;7.50;;;4.30;;
45296;SDS011;31040;51.622;10.420;2023-04-25T01:24:12;4.65;;;3.40;;
45296;SDS011;31040;51.622;10.420;2023-04-25T01:26:40;7.68;;;4.53;;
45296;SDS011;31040;51.622;10.420;2023-04-25T01:29:11;11.57;;;4.72;;
45296;SDS011;31040;51.622;10.420;2023-04-25T01:31:38;7.88;;;4.40;;
45296;SDS011;31040;51.622;10.420;2023-04-25T01:34:06;11.68;;;5.10;;
45296;SDS011;31040;51.622;10.420;2023-04-25T01:36:33;6.85;;;4.03;;
45296;SDS011;31040;51.622;10.420;2023-04-25T01:39:01;14.27;;;6.18;;
45296;SDS011;31040;51.622;10.420;2023-04-25T01:41:29;9.77;;;5.93;;
45296;SDS011;31040;51.622;10.420;2023-04-25T01:43:56;16.30;;;8.05;;
45296;SDS011;31040;51.622;10.420;2023-04-25T01:46:24;13.65;;;8.32;;
45296;SDS011;31040;51.622;10.420;2023-04-25T01:48:51;14.40;;;8.07;;
45296;SDS011;31040;51.622;10.420;2023-04-25T01:51:19;15.85;;;8.93;;
45296;SDS011;31040;51.622;10.420;2023-04-25T01:53:46;17.50;;;9.68;;
45296;SDS011;31040;51.622;10.420;2023-04-25T01:56:14;15.38;;;10.32;;
45296;SDS011;31040;51.622;10.420;2023-04-25T01:58:41;14.07;;;7.32;;
45296;SDS011;31040;51.622;10.420;2023-04-25T02:01:08;14.20;;;7.03;;
45296;SDS011;31040;51.622;10.420;2023-04-25T02:03:36;13.95;;;6.65;;
45296;SDS011;31040;51.622;10.420;2023-04-25T02:06:04;11.13;;;6.55;;
45296;SDS011;31040;51.622;10.420;2023-04-25T02:08:31;13.65;;;5.63;;
45296;SDS011;31040;51.622;10.420;2023-04-25T02:10:58;7.93;;;5.47;;
45296;SDS011;31040;51.622;10.420;2023-04-25T02:13:26;10.15;;;5.75;;
45296;SDS011;31040;51.622;10.420;2023-04-25T02:15:53;9.70;;;5.55;;
45296;SDS011;31040;51.622;10.420;2023-04-25T02:18:21;13.60;;;6.60;;
45296;SDS011;31040;51.622;10.420;2023-04-25T02:20:48;11.20;;;5.07;;
45296;SDS011;31040;51.622;10.420;2023-04-25T02:23:16;8.32;;;4.70;;
45296;SDS011;31040;51.622;10.420;2023-04-25T02:25:45;11.98;;;5.70;;
45296;SDS011;31040;51.622;10.420;2023-04-25T02:28:12;10.93;;;5.20;;
45296;SDS011;31040;51.622;10.420;2023-04-25T02:30:40;10.07;;;4.70;;
45296;SDS011;31040;51.622;10.420;2023-04-25T02:33:07;13.13;;;5.10;;
45296;SDS011;31040;51.622;10.420;2023-04-25T02:35:35;10.32;;;5.20;;
45296;SDS011;31040;51.622;10.420;2023-04-25T02:38:02;12.35;;;5.40;;
45296;SDS011;31040;51.622;10.420;2023-04-25T02:40:29;9.55;;;5.22;;
45296;SDS011;31040;51.622;10.420;2023-04-25T02:42:57;7.95;;;4.97;;
45296;SDS011;31040;51.622;10.420;2023-04-25T02:45:24;9.27;;;4.57;;
45296;SDS011;31040;51.622;10.420;2023-04-25T02:47:51;10.73;;;4.93;;
45296;SDS011;31040;51.622;10.420;2023-04-25T02:50:19;11.90;;;5.70;;
45296;SDS011;31040;51.622;10.420;2023-04-25T02:52:46;13.50;;;5.28;;
45296;SDS011;31040;51.622;10.420;2023-04-25T02:55:14;12.18;;;5.10;;
45296;SDS011;31040;51.622;10.420;2023-04-25T02:57:41;8.50;;;4.88;;
45296;SDS011;31040;51.622;10.420;2023-04-25T03:00:09;10.05;;;4.90;;
45296;SDS011;31040;51.622;10.420;2023-04-25T03:02:38;8.10;;;4.60;;
45296;SDS011;31040;51.622;10.420;2023-04-25T03:05:05;11.60;;;4.93;;
45296;SDS011;31040;51.622;10.420;2023-04-25T03:07:33;10.63;;;5.13;;
45296;SDS011;31040;51.622;10.420;2023-04-25T03:10:00;10.38;;;5.38;;
45296;SDS011;31040;51.622;10.420;2023-04-25T03:12:28;12.07;;;6.32;;
45296;SDS011;31040;51.622;10.420;2023-04-25T03:14:56;10.82;;;6.25;;
45296;SDS011;31040;51.622;10.420;2023-04-25T03:17:23;9.88;;;5.68;;
45296;SDS011;31040;51.622;10.420;2023-04-25T03:19:50;11.55;;;5.45;;
45296;SDS011;31040;51.622;10.420;2023-04-25T03:22:18;11.25;;;5.70;;
45296;SDS011;31040;51.622;10.420;2023-04-25T03:24:45;10.63;;;5.40;;
45296;SDS011;31040;51.622;10.420;2023-04-25T03:27:13;11.57;;;5.93;;
45296;SDS011;31040;51.622;10.420;2023-04-25T03:29:40;10.55;;;6.22;;
45296;SDS011;31040;51.622;10.420;2023-04-25T03:32:08;9.57;;;5.78;;
45296;SDS011;31040;51.622;10.420;2023-04-25T03:34:35;11.23;;;5.85;;
45296;SDS011;31040;51.622;10.420;2023-04-25T03:37:03;13.20;;;6.28;;
45296;SDS011;31040;51.622;10.420;2023-04-25T03:39:30;10.00;;;5.80;;
45296;SDS011;31040;51.622;10.420;2023-04-25T03:41:58;10.70;;;6.10;;
45296;SDS011;31040;51.622;10.420;2023-04-25T03:44:25;10.15;;;5.97;;
45296;SDS011;31040;51.622;10.420;2023-04-25T03:46:52;12.68;;;6.55;;
45296;SDS011;31040;51.622;10.420;2023-04-25T03:49:20;12.60;;;6.72;;
45296;SDS011;31040;51.622;10.420;2023-04-25T03:51:47;24.77;;;8.18;;
45296;SDS011;31040;51.622;10.420;2023-04-25T03:54:15;11.70;;;7.18;;
45296;SDS011;31040;51.622;10.420;2023-04-25T03:56:42;14.45;;;6.60;;
45296;SDS011;31040;51.622;10.420;2023-04-25T03:59:09;13.10;;;7.03;;
45296;SDS011;31040;51.622;10.420;2023-04-25T04:01:37;12.40;;;6.93;;
45296;SDS011;31040;51.622;10.420;2023-04-25T04:04:04;15.63;;;7.20;;
45296;SDS011;31040;51.622;10.420;2023-04-25T04:06:32;11.57;;;6.80;;
45296;SDS011;31040;51.622;10.420;2023-04-25T04:09:02;16.25;;;8.27;;
45296;SDS011;31040;51.622;10.420;2023-04-25T04:11:29;13.80;;;7.18;;
45296;SDS011;31040;51.622;10.420;2023-04-25T04:13:58;14.57;;;7.90;;
45296;SDS011;31040;51.622;10.420;2023-04-25T04:16:26;11.45;;;7.32;;
45296;SDS011;31040;51.622;10.420;2023-04-25T04:18:53;11.95;;;7.25;;
45296;SDS011;31040;51.622;10.420;2023-04-25T04:21:21;13.23;;;8.48;;
45296;SDS011;31040;51.622;10.420;2023-04-25T04:23:48;14.05;;;7.93;;
45296;SDS011;31040;51.622;10.420;2023-04-25T04:26:16;14.82;;;7.07;;
45296;SDS011;31040;51.622;10.420;2023-04-25T04:28:44;12.10;;;7.32;;
45296;SDS011;31040;51.622;10.420;2023-04-25T04:31:12;14.13;;;8.27;;
45296;SDS011;31040;51.622;10.420;2023-04-25T04:33:43;15.13;;;8.68;;
45296;SDS011;31040;51.622;10.420;2023-04-25T04:36:11;16.42;;;9.30;;
45296;SDS011;31040;51.622;10.420;2023-04-25T04:38:39;15.68;;;8.80;;
45296;SDS011;31040;51.622;10.420;2023-04-25T04:41:07;17.75;;;9.15;;
45296;SDS011;31040;51.622;10.420;2023-04-25T04:43:34;13.70;;;7.70;;
45296;SDS011;31040;51.622;10.420;2023-04-25T04:46:03;10.98;;;7.25;;
45296;SDS011;31040;51.622;10.420;2023-04-25T04:48:33;11.15;;;7.10;;
45296;SDS011;31040;51.622;10.420;2023-04-25T04:51:00;10.27;;;6.50;;
45296;SDS011;31040;51.622;10.420;2023-04-25T04:53:28;10.95;;;6.82;;
45296;SDS011;31040;51.622;10.420;2023-04-25T04:55:55;14.18;;;9.18;;
45296;SDS011;31040;51.622;10.420;2023-04-25T04:58:23;12.35;;;9.00;;
45296;SDS011;31040;51.622;10.420;2023-04-25T05:00:50;17.63;;;10.55;;
45296;SDS011;31040;51.622;10.420;2023-04-25T05:03:18;19.92;;;10.18;;
45296;SDS011;31040;51.622;10.420;2023-04-25T05:05:45;15.85;;;10.30;;
45296;SDS011;31040;51.622;10.420;2023-04-25T05:08:13;20.65;;;9.95;;
45296;SDS011;31040;51.622;10.420;2023-04-25T05:10:40;16.17;;;10.25;;
45296;SDS011;31040;51.622;10.420;2023-04-25T05:13:08;16.17;;;10.10;;
45296;SDS011;31040;51.622;10.420;2023-04-25T05:15:35;20.23;;;11.55;;
45296;SDS011;31040;51.622;10.420;2023-04-25T05:18:02;17.73;;;11.82;;
45296;SDS011;31040;51.622;10.420;2023-04-25T05:20:30;18.10;;;11.13;;
45296;SDS011;31040;51.622;10.420;2023-04-25T05:22:57;16.80;;;10.93;;
45296;SDS011;31040;51.622;10.420;2023-04-25T05:25:25;21.00;;;11.25;;
45296;SDS011;31040;51.622;10.420;2023-04-25T05:27:52;18.25;;;11.15;;
45296;SDS011;31040;51.622;10.420;2023-04-25T05:30:20;17.95;;;11.00;;
45296;SDS011;31040;51.622;10.420;2023-04-25T05:32:48;33.33;;;11.45;;
45296;SDS011;31040;51.622;10.420;2023-04-25T05:35:15;18.00;;;10.73;;
45296;SDS011;31040;51.622;10.420;2023-04-25T05:37:43;16.83;;;10.52;;
45296;SDS011;31040;51.622;10.420;2023-04-25T05:40:10;19.58;;;10.63;;
45296;SDS011;31040;51.622;10.420;2023-04-25T05:42:38;17.63;;;11.13;;
45296;SDS011;31040;51.622;10.420;2023-04-25T05:45:05;15.80;;;10.82;;
45296;SDS011;31040;51.622;10.420;2023-04-25T05:47:32;10.27;;;6.97;;
45296;SDS011;31040;51.622;10.420;2023-04-25T05:50:00;9.60;;;5.47;;
45296;SDS011;31040;51.622;10.420;2023-04-25T05:52:28;9.55;;;5.70;;
45296;SDS011;31040;51.622;10.420;2023-04-25T05:54:55;9.60;;;5.43;;
45296;SDS011;31040;51.622;10.420;2023-04-25T05:57:23;9.48;;;5.40;;
45296;SDS011;31040;51.622;10.420;2023-04-25T05:59:51;9.05;;;5.97;;
45296;SDS011;31040;51.622;10.420;2023-04-25T06:02:19;11.13;;;5.53;;
45296;SDS011;31040;51.622;10.420;2023-04-25T06:04:49;8.35;;;5.05;;
45296;SDS011;31040;51.622;10.420;2023-04-25T06:07:17;7.25;;;4.45;;
45296;SDS011;31040;51.622;10.420;2023-04-25T06:09:45;9.18;;;4.70;;
45296;SDS011;31040;51.622;10.420;2023-04-25T06:12:12;10.10;;;5.68;;
45296;SDS011;31040;51.622;10.420;2023-04-25T06:14:40;11.32;;;5.88;;
45296;SDS011;31040;51.622;10.420;2023-04-25T06:17:07;12.07;;;5.38;;
45296;SDS011;31040;51.622;10.420;2023-04-25T06:19:35;9.95;;;4.63;;
45296;SDS011;31040;51.622;10.420;2023-04-25T06:22:02;9.13;;;4.50;;
45296;SDS011;31040;51.622;10.420;2023-04-25T06:24:30;9.75;;;4.07;;
45296;SDS011;31040;51.622;10.420;2023-04-25T06:26:57;8.73;;;4.30;;
45296;SDS011;31040;51.622;10.420;2023-04-25T06:29:25;9.63;;;4.03;;
45296;SDS011;31040;51.622;10.420;2023-04-25T06:31:52;11.00;;;4.20;;
45296;SDS011;31040;51.622;10.420;2023-04-25T06:34:20;13.27;;;4.07;;
45296;SDS011;31040;51.622;10.420;2023-04-25T06:36:47;12.77;;;5.65;;
45296;SDS011;31040;51.622;10.420;2023-04-25T06:39:14;15.52;;;5.13;;
45296;SDS011;31040;51.622;10.420;2023-04-25T06:41:42;11.90;;;4.30;;
45296;SDS011;31040;51.622;10.420;2023-04-25T06:44:10;7.53;;;4.15;;
45296;SDS011;31040;51.622;10.420;2023-04-25T06:46:37;10.30;;;4.78;;
45296;SDS011;31040;51.622;10.420;2023-04-25T06:49:04;10.80;;;4.68;;
45296;SDS011;31040;51.622;10.420;2023-04-25T06:51:32;12.82;;;5.00;;
45296;SDS011;31040;51.622;10.420;2023-04-25T06:53:59;14.02;;;5.15;;
45296;SDS011;31040;51.622;10.420;2023-04-25T06:56:27;16.48;;;5.97;;
45296;SDS011;31040;51.622;10.420;2023-04-25T06:58:57;13.35;;;4.63;;
45296;SDS011;31040;51.622;10.420;2023-04-25T07:01:24;12.50;;;4.10;;
45296;SDS011;31040;51.622;10.420;2023-04-25T07:03:52;8.35;;;3.92;;
45296;SDS011;31040;51.622;10.420;2023-04-25T07:06:19;10.00;;;4.60;;
45296;SDS011;31040;51.622;10.420;2023-04-25T07:08:47;13.82;;;4.88;;
45296;SDS011;31040;51.622;10.420;2023-04-25T07:11:14;13.88;;;4.18;;
45296;SDS011;31040;51.622;10.420;2023-04-25T07:13:42;11.25;;;4.70;;
45296;SDS011;31040;51.622;10.420;2023-04-25T07:16:09;15.93;;;6.65;;
45296;SDS011;31040;51.622;10.420;2023-04-25T07:18:36;10.48;;;5.28;;
45296;SDS011;31040;51.622;10.420;2023-04-25T07:21:04;9.80;;;4.05;;
45296;SDS011;31040;51.622;10.420;2023-04-25T07:23:31;11.73;;;4.57;;
45296;SDS011;31040;51.622;10.420;2023-04-25T07:25:59;34.72;;;6.78;;
45296;SDS011;31040;51.622;10.420;2023-04-25T07:28:26;15.18;;;6.38;;
45296;SDS011;31040;51.622;10.420;2023-04-25T07:30:53;12.20;;;4.43;;
45296;SDS011;31040;51.622;10.420;2023-04-25T07:33:21;9.98;;;4.50;;
45296;SDS011;31040;51.622;10.420;2023-04-25T07:35:49;10.70;;;5.25;;
45296;SDS011;31040;51.622;10.420;2023-04-25T07:38:17;9.15;;;3.97;;
45296;SDS011;31040;51.622;10.420;2023-04-25T07:40:44;15.13;;;5.40;;
45296;SDS011;31040;51.622;10.420;2023-04-25T07:43:11;13.77;;;4.90;;
45296;SDS011;31040;51.622;10.420;2023-04-25T07:45:43;14.05;;;5.28;;
45296;SDS011;31040;51.622;10.420;2023-04-25T07:48:10;11.75;;;3.72;;
45296;SDS011;31040;51.622;10.420;2023-04-25T07:50:38;9.70;;;4.47;;
45296;SDS011;31040;51.622;10.420;2023-04-25T07:53:05;13.73;;;4.50;;
45296;SDS011;31040;51.622;10.420;2023-04-25T07:55:33;14.60;;;7.00;;
45296;SDS011;31040;51.622;10.420;2023-04-25T07:58:00;10.20;;;6.82;;
45296;SDS011;31040;51.622;10.420;2023-04-25T08:00:28;19.63;;;5.05;;
45296;SDS011;31040;51.622;10.420;2023-04-25T08:02:55;13.63;;;6.57;;
45296;SDS011;31040;51.622;10.420;2023-04-25T08:05:23;16.75;;;5.93;;
45296;SDS011;31040;51.622;10.420;2023-04-25T08:07:51;9.98;;;4.07;;
45296;SDS011;31040;51.622;10.420;2023-04-25T08:10:18;12.02;;;4.10;;
45296;SDS011;31040;51.622;10.420;2023-04-25T08:12:46;12.05;;;4.88;;
45296;SDS011;31040;51.622;10.420;2023-04-25T08:15:13;11.75;;;4.32;;
45296;SDS011;31040;51.622;10.420;2023-04-25T08:17:40;9.73;;;4.18;;
45296;SDS011;31040;51.622;10.420;2023-04-25T08:20:10;13.13;;;4.43;;
45296;SDS011;31040;51.622;10.420;2023-04-25T08:22:38;10.20;;;3.70;;
45296;SDS011;31040;51.622;10.420;2023-04-25T08:25:05;13.48;;;4.13;;
45296;SDS011;31040;51.622;10.420;2023-04-25T08:27:32;9.13;;;4.07;;
45296;SDS011;31040;51.622;10.420;2023-04-25T08:30:00;12.93;;;3.58;;
45296;SDS011;31040;51.622;10.420;2023-04-25T08:32:29;14.43;;;4.43;;
45296;SDS011;31040;51.622;10.420;2023-04-25T08:34:56;8.73;;;3.67;;
45296;SDS011;31040;51.622;10.420;2023-04-25T08:37:24;11.73;;;3.22;;
45296;SDS011;31040;51.622;10.420;2023-04-25T08:39:52;8.65;;;3.35;;
45296;SDS011;31040;51.622;10.420;2023-04-25T08:42:19;13.05;;;3.70;;
45296;SDS011;31040;51.622;10.420;2023-04-25T08:44:49;8.70;;;3.45;;
45296;SDS011;31040;51.622;10.420;2023-04-25T08:47:17;9.07;;;2.83;;
45296;SDS011;31040;51.622;10.420;2023-04-25T08:49:47;10.98;;;3.65;;
45296;SDS011;31040;51.622;10.420;2023-04-25T08:52:15;7.57;;;3.45;;
45296;SDS011;31040;51.622;10.420;2023-04-25T08:54:48;8.93;;;2.85;;
45296;SDS011;31040;51.622;10.420;2023-04-25T08:57:15;9.80;;;3.10;;
45296;SDS011;31040;51.622;10.420;2023-04-25T08:59:44;7.85;;;3.20;;
45296;SDS011;31040;51.622;10.420;2023-04-25T09:02:13;9.38;;;2.90;;
45296;SDS011;31040;51.622;10.420;2023-04-25T09:04:43;11.68;;;3.15;;
45296;SDS011;31040;51.622;10.420;2023-04-25T09:07:11;7.72;;;2.95;;
45296;SDS011;31040;51.622;10.420;2023-04-25T09:09:41;10.95;;;3.30;;
45296;SDS011;31040;51.622;10.420;2023-04-25T09:12:09;7.93;;;3.00;;
45296;SDS011;31040;51.622;10.420;2023-04-25T09:14:37;6.95;;;3.13;;
45296;SDS011;31040;51.622;10.420;2023-04-25T09:17:04;7.93;;;2.90;;
45296;SDS011;31040;51.622;10.420;2023-04-25T09:19:35;6.35;;;2.50;;
45296;SDS011;31040;51.622;10.420;2023-04-25T09:22:07;12.70;;;2.85;;
45296;SDS011;31040;51.622;10.420;2023-04-25T09:24:36;8.13;;;2.65;;
45296;SDS011;31040;51.622;10.420;2023-04-25T09:27:04;7.10;;;2.80;;
45296;SDS011;31040;51.622;10.420;2023-04-25T09:29:32;9.90;;;3.20;;
45296;SDS011;31040;51.622;10.420;2023-04-25T09:32:14;11.55;;;3.22;;
45296;SDS011;31040;51.622;10.420;2023-04-25T09:34:43;5.45;;;2.72;;
45296;SDS011;31040;51.622;10.420;2023-04-25T09:37:10;7.88;;;2.33;;
45296;SDS011;31040;51.622;10.420;2023-04-25T09:39:38;8.77;;;1.90;;
45296;SDS011;31040;51.622;10.420;2023-04-25T09:42:06;5.80;;;2.10;;
45296;SDS011;31040;51.622;10.420;2023-04-25T09:44:34;4.22;;;1.60;;
45296;SDS011;31040;51.622;10.420;2023-04-25T09:47:01;4.32;;;1.98;;
45296;SDS011;31040;51.622;10.420;2023-04-25T09:49:28;5.00;;;2.10;;
45296;SDS011;31040;51.622;10.420;2023-04-25T09:51:57;4.63;;;2.05;;
45296;SDS011;31040;51.622;10.420;2023-04-25T09:54:24;5.07;;;2.22;;
45296;SDS011;31040;51.622;10.420;2023-04-25T09:56:53;7.78;;;1.95;;
45296;SDS011;31040;51.622;10.420;2023-04-25T09:59:21;2.83;;;1.75;;
45296;SDS011;31040;51.622;10.420;2023-04-25T10:01:51;5.07;;;2.00;;
45296;SDS011;31040;51.622;10.420;2023-04-25T10:04:20;6.95;;;2.10;;
45296;SDS011;31040;51.622;10.420;2023-04-25T10:06:49;7.63;;;2.10;;
45296;SDS011;31040;51.622;10.420;2023-04-25T10:09:19;5.53;;;2.17;;
45296;SDS011;31040;51.622;10.420;2023-04-25T10:11:47;8.10;;;2.00;;
45296;SDS011;31040;51.622;10.420;2023-04-25T10:14:15;6.63;;;2.42;;
45296;SDS011;31040;51.622;10.420;2023-04-25T10:16:43;3.88;;;1.95;;
45296;SDS011;31040;51.622;10.420;2023-04-25T10:19:10;5.97;;;1.92;;
45296;SDS011;31040;51.622;10.420;2023-04-25T10:21:42;6.88;;;2.20;;
45296;SDS011;31040;51.622;10.420;2023-04-25T10:24:12;4.35;;;2.38;;
45296;SDS011;31040;51.622;10.420;2023-04-25T10:26:39;9.23;;;2.83;;
45296;SDS011;31040;51.622;10.420;2023-04-25T10:29:07;7.40;;;2.22;;
45296;SDS011;31040;51.622;10.420;2023-04-25T10:31:44;10.15;;;2.40;;
45296;SDS011;31040;51.622;10.420;2023-04-25T10:34:12;5.72;;;2.50;;
45296;SDS011;31040;51.622;10.420;2023-04-25T10:36:39;4.68;;;1.77;;
45296;SDS011;31040;51.622;10.420;2023-04-25T10:39:07;7.00;;;2.10;;
45296;SDS011;31040;51.622;10.420;2023-04-25T10:41:48;6.10;;;2.42;;
45296;SDS011;31040;51.622;10.420;2023-04-25T10:44:19;8.30;;;2.60;;
45296;SDS011;31040;51.622;10.420;2023-04-25T10:46:46;6.68;;;2.38;;
45296;SDS011;31040;51.622;10.420;2023-04-25T10:49:33;2.53;;;1.52;;
45296;SDS011;31040;51.622;10.420;2023-04-25T10:54:47;8.73;;;2.47;;
45296;SDS011;31040;51.622;10.420;2023-04-25T11:00:01;4.28;;;1.50;;
45296;SDS011;31040;51.622;10.420;2023-04-25T11:02:31;6.40;;;1.80;;
45296;SDS011;31040;51.622;10.420;2023-04-25T11:04:59;4.45;;;1.67;;
45296;SDS011;31040;51.622;10.420;2023-04-25T11:10:28;4.80;;;1.52;;
45296;SDS011;31040;51.622;10.420;2023-04-25T11:12:56;5.35;;;1.90;;
45296;SDS011;31040;51.622;10.420;2023-04-25T11:15:23;4.80;;;1.38;;
45296;SDS011;31040;51.622;10.420;2023-04-25T11:17:51;3.58;;;1.90;;
45296;SDS011;31040;51.622;10.420;2023-04-25T11:20:19;6.13;;;2.35;;
45296;SDS011;31040;51.622;10.420;2023-04-25T11:22:47;5.22;;;1.45;;
45296;SDS011;31040;51.622;10.420;2023-04-25T11:25:17;5.65;;;1.65;;
45296;SDS011;31040;51.622;10.420;2023-04-25T11:30:18;9.10;;;2.85;;
45296;SDS011;31040;51.622;10.420;2023-04-25T11:32:47;7.22;;;2.20;;
45296;SDS011;31040;51.622;10.420;2023-04-25T11:35:14;7.38;;;2.90;;
45296;SDS011;31040;51.622;10.420;2023-04-25T11:37:42;10.07;;;3.50;;
45296;SDS011;31040;51.622;10.420;2023-04-25T11:40:10;4.18;;;1.73;;
45296;SDS011;31040;51.622;10.420;2023-04-25T11:42:47;5.93;;;1.95;;
45296;SDS011;31040;51.622;10.420;2023-04-25T11:45:14;5.80;;;2.25;;
45296;SDS011;31040;51.622;10.420;2023-04-25T11:47:42;2.10;;;1.90;;
45296;SDS011;31040;51.622;10.420;2023-04-25T11:50:10;4.13;;;1.73;;
45296;SDS011;31040;51.622;10.420;2023-04-25T11:52:41;10.98;;;4.63;;
45296;SDS011;31040;51.622;10.420;2023-04-25T11:55:15;3.55;;;1.88;;
45296;SDS011;31040;51.622;10.420;2023-04-25T11:57:47;3.60;;;1.63;;
45296;SDS011;31040;51.622;10.420;2023-04-25T12:00:16;7.00;;;2.53;;
45296;SDS011;31040;51.622;10.420;2023-04-25T12:02:51;5.18;;;1.67;;
45296;SDS011;31040;51.622;10.420;2023-04-25T12:05:19;6.22;;;1.75;;
45296;SDS011;31040;51.622;10.420;2023-04-25T12:07:58;6.03;;;1.92;;
45296;SDS011;31040;51.622;10.420;2023-04-25T12:10:26;4.82;;;2.20;;
45296;SDS011;31040;51.622;10.420;2023-04-25T12:12:53;5.65;;;1.80;;
45296;SDS011;31040;51.622;10.420;2023-04-25T12:15:24;6.90;;;2.33;;
45296;SDS011;31040;51.622;10.420;2023-04-25T12:17:53;8.52;;;2.67;;
45296;SDS011;31040;51.622;10.420;2023-04-25T12:20:23;3.25;;;1.75;;
45296;SDS011;31040;51.622;10.420;2023-04-25T12:22:51;4.03;;;2.08;;
45296;SDS011;31040;51.622;10.420;2023-04-25T12:25:35;4.20;;;2.10;;
45296;SDS011;31040;51.622;10.420;2023-04-25T12:28:21;4.53;;;1.98;;
45296;SDS011;31040;51.622;10.420;2023-04-25T12:33:28;7.05;;;2.38;;
45296;SDS011;31040;51.622;10.420;2023-04-25T12:35:56;4.25;;;1.98;;
45296;SDS011;31040;51.622;10.420;2023-04-25T12:38:25;4.88;;;1.95;;
45296;SDS011;31040;51.622;10.420;2023-04-25T12:40:53;5.22;;;1.73;;
45296;SDS011;31040;51.622;10.420;2023-04-25T12:43:20;4.63;;;2.92;;
45296;SDS011;31040;51.622;10.420;2023-04-25T12:45:51;4.03;;;2.00;;
45296;SDS011;31040;51.622;10.420;2023-04-25T12:48:19;5.28;;;2.45;;
45296;SDS011;31040;51.622;10.420;2023-04-25T12:50:47;6.05;;;2.28;;
45296;SDS011;31040;51.622;10.420;2023-04-25T12:53:16;4.72;;;2.00;;
45296;SDS011;31040;51.622;10.420;2023-04-25T12:55:43;4.60;;;2.50;;
45296;SDS011;31040;51.622;10.420;2023-04-25T12:58:13;4.95;;;2.28;;
45296;SDS011;31040;51.622;10.420;2023-04-25T13:00:41;4.68;;;2.10;;
45296;SDS011;31040;51.622;10.420;2023-04-25T13:03:09;6.38;;;1.80;;
45296;SDS011;31040;51.622;10.420;2023-04-25T13:05:37;4.47;;;1.88;;
45296;SDS011;31040;51.622;10.420;2023-04-25T13:08:05;4.35;;;1.50;;
45296;SDS011;31040;51.622;10.420;2023-04-25T13:10:32;8.70;;;2.20;;
45296;SDS011;31040;51.622;10.420;2023-04-25T13:13:00;4.30;;;1.63;;
45296;SDS011;31040;51.622;10.420;2023-04-25T13:15:27;6.55;;;1.80;;
45296;SDS011;31040;51.622;10.420;2023-04-25T13:17:55;5.38;;;1.83;;
45296;SDS011;31040;51.622;10.420;2023-04-25T13:20:23;4.72;;;1.55;;
45296;SDS011;31040;51.622;10.420;2023-04-25T13:22:50;4.22;;;2.00;;
45296;SDS011;31040;51.622;10.420;2023-04-25T13:25:17;2.45;;;1.73;;
45296;SDS011;31040;51.622;10.420;2023-04-25T13:27:45;6.97;;;1.70;;
45296;SDS011;31040;51.622;10.420;2023-04-25T13:30:12;5.93;;;1.70;;
45296;SDS011;31040;51.622;10.420;2023-04-25T13:32:40;3.83;;;2.05;;
45296;SDS011;31040;51.622;10.420;2023-04-25T13:35:11;5.40;;;1.65;;
45296;SDS011;31040;51.622;10.420;2023-04-25T13:37:40;4.22;;;1.73;;
45296;SDS011;31040;51.622;10.420;2023-04-25T13:40:08;3.10;;;1.80;;
45296;SDS011;31040;51.622;10.420;2023-04-25T13:42:36;6.18;;;1.63;;
45296;SDS011;31040;51.622;10.420;2023-04-25T13:45:04;4.13;;;1.73;;
45296;SDS011;31040;51.622;10.420;2023-04-25T13:47:32;4.45;;;1.92;;
45296;SDS011;31040;51.622;10.420;2023-04-25T13:49:59;6.45;;;2.20;;
45296;SDS011;31040;51.622;10.420;2023-04-25T13:52:29;6.05;;;1.58;;
45296;SDS011;31040;51.622;10.420;2023-04-25T13:54:56;4.43;;;1.70;;
45296;SDS011;31040;51.622;10.420;2023-04-25T13:57:24;3.00;;;1.85;;
45296;SDS011;31040;51.622;10.420;2023-04-25T13:59:52;6.10;;;1.90;;
45296;SDS011;31040;51.622;10.420;2023-04-25T14:02:20;4.95;;;1.90;;
45296;SDS011;31040;51.622;10.420;2023-04-25T14:04:47;3.42;;;1.67;;
45296;SDS011;31040;51.622;10.420;2023-04-25T14:07:15;3.25;;;1.33;;
45296;SDS011;31040;51.622;10.420;2023-04-25T14:09:42;7.20;;;1.95;;
45296;SDS011;31040;51.622;10.420;2023-04-25T14:12:09;5.72;;;1.67;;
45296;SDS011;31040;51.622;10.420;2023-04-25T14:14:37;3.88;;;1.60;;
45296;SDS011;31040;51.622;10.420;2023-04-25T14:17:04;4.38;;;1.80;;
45296;SDS011;31040;51.622;10.420;2023-04-25T14:19:33;3.30;;;1.42;;
45296;SDS011;31040;51.622;10.420;2023-04-25T14:22:00;3.22;;;1.98;;
45296;SDS011;31040;51.622;10.420;2023-04-25T14:24:28;3.42;;;1.52;;
45296;SDS011;31040;51.622;10.420;2023-04-25T14:26:55;2.97;;;1.42;;
45296;SDS011;31040;51.622;10.420;2023-04-25T14:29:23;3.10;;;1.45;;
45296;SDS011;31040;51.622;10.420;2023-04-25T14:31:50;5.70;;;1.67;;
45296;SDS011;31040;51.622;10.420;2023-04-25T14:34:17;2.58;;;1.67;;
45296;SDS011;31040;51.622;10.420;2023-04-25T14:36:45;3.90;;;1.70;;
45296;SDS011;31040;51.622;10.420;2023-04-25T14:39:12;3.13;;;1.42;;
45296;SDS011;31040;51.622;10.420;2023-04-25T14:41:41;2.92;;;1.63;;
45296;SDS011;31040;51.622;10.420;2023-04-25T14:44:08;5.05;;;2.78;;
45296;SDS011;31040;51.622;10.420;2023-04-25T14:46:36;1.90;;;1.38;;